Flight Track Log - Related Links

Times and Time Zones

All times are in EDT time to prevent confusion due to time zone crossing. See the WJA1211 flight status page for this flight to view local times or setup timezone preferences in your user account.

Time Position Orientation Groundspeed Altitude Reporting Facility
EDT Latitude Longitude Course Direction KTS MPH feet Rate Location/Type
Thu 05:31:05 PM 40.7500 -73.8333 123° Southeast 160 184 1,900  Level New York TRACON
Thu 05:32:05 PM 40.7333 -73.8000 123° Southeast 222 255 4,100 2,500 Climbing New York TRACON
Thu 05:33:05 PM 40.8000 -73.7833 11° North 263 303 6,900 3,050 Climbing New York TRACON
Thu 05:34:05 PM 40.8667 -73.7833 360° North 260 299 10,200 3,263 Climbing New York TRACON
Thu 05:34:59 PM 40.9167 -73.8333 323° Northwest 250 288 13,100 1,871 Climbing New York TRACON
Thu 05:37:11 PM 41.0631 -74.0128 317° Northwest 368 423 16,000 1,188 Climbing New York Center
Thu 05:38:11 PM 41.1339 -74.0878 321° Northwest 368 423 16,900 496 Climbing New York Center
Thu 05:39:12 PM 41.1947 -74.2094 304° West 358 412 17,000 151 Climbing New York Center
Thu 05:40:10 PM 41.2417 -74.3139 301° West 358 412 17,200 1,160 Climbing New York Center
Thu 05:41:11 PM 41.2925 -74.4242 302° West 363 418 19,300 2,727 Climbing New York Center
Thu 05:42:11 PM 41.3592 -74.5578 304° West 385 443 22,700 2,926 Climbing New York Center
Thu 05:43:12 PM 41.4053 -74.6739 298° West 392 451 25,200 2,479 Climbing New York Center
Thu 05:44:12 PM 41.4636 -74.7989 302° West 398 458 27,700 2,390 Climbing New York Center
Thu 05:45:10 PM 41.5236 -74.9272 302° West 403 464 29,900 1,169 Climbing New York Center
Thu 05:46:10 PM 41.5814 -75.0583 301° West 408 470 30,000 50 Climbing New York Center
Thu 05:47:11 PM 41.6414 -75.1900 301° West 414 476 30,000  Level New York Center
Thu 05:48:11 PM 41.6986 -75.3214 300° West 414 476 30,000  Level New York Center
Thu 05:49:11 PM 41.7581 -75.4533 301° West 414 476 30,000  Level New York Center
Thu 05:50:12 PM 41.8253 -75.6000 302° West 414 476 30,000  Level New York Center
Thu 05:51:12 PM 41.8803 -75.7294 300° West 414 476 30,000  Level New York Center
Thu 05:52:10 PM 41.9392 -75.8594 301° West 414 476 30,000  Level New York Center
Thu 05:53:11 PM 41.9958 -75.9919 300° West 414 476 30,000  Level New York Center
Thu 05:54:12 PM 42.0411 -76.0989 300° West 414 476 30,000  Level New York Center
Thu 05:56:14 PM 42.1694 -76.4000 300° West 403 464 30,000  Level Cleveland Center
Thu 05:57:14 PM 42.2283 -76.5308 301° West 403 464 30,000  Level Cleveland Center
Thu 05:58:14 PM 42.2831 -76.6592 300° West 403 464 30,000  Level Cleveland Center
Thu 05:59:14 PM 42.3394 -76.7906 300° West 403 464 30,000  Level Cleveland Center
Thu 06:00:14 PM 42.3958 -76.9222 300° West 403 464 30,000  Level Cleveland Center
Thu 06:01:15 PM 42.4481 -77.0544 298° West 403 464 30,000  Level Cleveland Center
Thu 06:02:14 PM 42.4917 -77.1956 293° West 403 464 30,000  Level Cleveland Center
Thu 06:03:14 PM 42.5333 -77.3342 292° West 398 458 30,000  Level Cleveland Center
Thu 06:04:14 PM 42.5789 -77.4758 294° West 403 464 30,000  Level Cleveland Center
Thu 06:05:14 PM 42.6203 -77.6175 292° West 408 470 30,000  Level Cleveland Center
Thu 06:06:14 PM 42.6633 -77.7567 293° West 408 470 30,000 -200 Level Cleveland Center
Thu 06:07:14 PM 42.7039 -77.8878 293° West 408 470 29,600 -700 Descending Cleveland Center
Thu 06:08:14 PM 42.7444 -78.0189 293° West 398 458 28,600 -800 Descending Cleveland Center
Thu 06:09:14 PM 42.7828 -78.1503 292° West 388 447 28,000 -600 Descending Cleveland Center
Thu 06:10:14 PM 42.8208 -78.2792 292° West 383 441 27,400 -800 Descending Cleveland Center
Thu 06:11:14 PM 42.8586 -78.4050 292° West 367 422 26,400 -950 Descending Cleveland Center
Thu 06:12:14 PM 42.8964 -78.5314 292° West 367 422 25,500 -950 Descending Cleveland Center
Thu 06:13:14 PM 42.9425 -78.6658 295° West 372 428 24,500 -1,450 Descending Cleveland Center
Thu 06:14:14 PM 43.0069 -78.7917 305° West 392 451 22,600 -2,415 Descending Cleveland Center
Thu 06:15:53 PM 43.1167 -79.0000 306° West 400 460 18,100 -2,830 Descending Toronto Center
Thu 06:16:53 PM 43.1833 -79.1000 312° West 390 449 15,100 -2,500 Descending Toronto Center
Thu 06:17:53 PM 43.2333 -79.2000 304° West 370 426 13,100 -1,550 Descending Toronto Center
Thu 06:18:53 PM 43.3000 -79.3167 308° West 350 403 12,000 -900 Descending Toronto Center
Thu 06:19:53 PM 43.3667 -79.3833 324° Northwest 330 380 11,300 -1,000 Descending Toronto Center
Thu 06:20:53 PM 43.4500 -79.4333 336° Northwest 310 357 10,000 -1,600 Descending Toronto Center
Thu 06:21:53 PM 43.5167 -79.4667 340° North 280 322 8,100 -1,300 Descending Toronto Center
Thu 06:22:53 PM 43.6000 -79.5167 337° Northwest 280 322 7,400 -1,000 Descending Toronto Center
Thu 06:23:53 PM 43.6500 -79.4333 50° Northeast 310 357 6,100 -1,300 Descending Toronto Center
Thu 06:24:53 PM 43.7167 -79.3500 42° Northeast 300 345 4,800 -900 Descending Toronto Center
Thu 06:25:53 PM 43.7667 -79.4000 324° Northwest 220 253 4,300 -850 Descending Toronto Center
Thu 06:26:53 PM 43.7500 -79.4500 245° Southwest 160 184 3,100 -1,050 Descending Toronto Center
Thu 06:27:53 PM 43.7333 -79.5000 245° Southwest 130 150 2,200 -700 Descending Toronto Center
Thu 06:28:53 PM 43.7000 -79.5167 200° South 120 138 1,700 -500 Descending Toronto Center
Thu 06:29:53 PM 43.6833 -79.5333 216° Southwest 100 115 1,200 -600 Descending Toronto Center
Thu 06:30:53 PM 43.6667 -79.5833 245° Southwest 110 127 500 -700 Descending Toronto Center
Thu 06:32:00 PM 43.6667 -79.6167 238° Southwest  Level FlightAware Approximate

Login

Don't have an account? Register now (free) for customized features, flight alerts, and more!